Time;durP1;ratioP1;P1;durP2;ratioP2;P2;SDS_P1;SDS_P2;PMS_P1;PMS_P2;Temp;Humidity;BMP_temperature;BMP_pressure;BME280_temperature;BME280_humidity;BME280_pressure;Samples;Min_cycle;Max_cycle;Signal;HPM_P1;HPM_P2
2022/05/28 00:00:18;;;;;;;9.10;1.92;;;;;;;;;;5010789;28;20050;-79
2022/05/28 00:02:46;;;;;;;14.98;2.50;;;;;;;;;;5011612;28;20495;-79
2022/05/28 00:05:14;;;;;;;18.65;2.58;;;;;;;;;;5012366;28;20093;-79
2022/05/28 00:07:41;;;;;;;14.50;2.80;;;;;;;;;;5011305;28;20046;-79
2022/05/28 00:10:13;;;;;;;14.63;2.50;;;;;;;;;;5010813;28;20138;-79
2022/05/28 00:12:41;;;;;;;21.67;2.97;;;;;;;;;;5011345;28;20105;-79
2022/05/28 00:15:08;;;;;;;16.20;2.40;;;;;;;;;;5010413;28;20136;-79
2022/05/28 00:17:36;;;;;;;17.27;2.85;;;;;;;;;;5008177;28;20101;-80
2022/05/28 00:20:04;;;;;;;16.67;2.63;;;;;;;;;;5010023;28;20061;-80
2022/05/28 00:22:31;;;;;;;16.73;2.63;;;;;;;;;;5007434;28;20050;-81
2022/05/28 00:24:59;;;;;;;17.85;2.47;;;;;;;;;;5007952;28;20189;-80
2022/05/28 00:27:26;;;;;;;18.38;3.20;;;;;;;;;;5002594;28;20506;-80
2022/05/28 00:29:53;;;;;;;26.55;3.65;;;;;;;;;;5010568;28;20212;-81
2022/05/28 00:32:21;;;;;;;17.13;2.95;;;;;;;;;;5010844;28;20081;-82
2022/05/28 00:34:51;;;;;;;22.13;2.92;;;;;;;;;;5010126;28;20042;-83
2022/05/28 00:37:18;;;;;;;14.60;3.15;;;;;;;;;;5011762;28;20088;-84
2022/05/28 00:39:45;;;;;;;16.10;2.63;;;;;;;;;;5012088;28;20073;-82
2022/05/28 00:42:12;;;;;;;29.88;3.42;;;;;;;;;;5011518;28;20127;-82
2022/05/28 00:44:39;;;;;;;29.00;3.20;;;;;;;;;;5010399;28;20245;-84
2022/05/28 00:47:07;;;;;;;15.50;3.28;;;;;;;;;;5010534;28;20616;-82
2022/05/28 00:49:34;;;;;;;13.60;2.50;;;;;;;;;;5011584;28;20057;-82
2022/05/28 00:52:03;;;;;;;25.23;4.20;;;;;;;;;;5011477;28;20042;-82
2022/05/28 00:54:42;;;;;;;26.95;7.28;;;;;;;;;;5010553;28;20146;-82
2022/05/28 00:57:10;;;;;;;19.92;3.72;;;;;;;;;;5010128;28;20176;-82
2022/05/28 00:59:38;;;;;;;11.48;2.30;;;;;;;;;;5010582;28;20682;-81
2022/05/28 01:02:10;;;;;;;18.25;2.38;;;;;;;;;;5010691;28;20104;-82
2022/05/28 01:04:48;;;;;;;18.95;2.13;;;;;;;;;;5011062;28;20116;-82
2022/05/28 01:07:18;;;;;;;12.98;2.17;;;;;;;;;;5010048;28;20079;-82
2022/05/28 01:10:02;;;;;;;12.23;2.60;;;;;;;;;;5010251;28;20146;-83
2022/05/28 01:12:38;;;;;;;13.27;3.17;;;;;;;;;;5012285;28;20081;-82
2022/05/28 01:15:09;;;;;;;13.50;2.60;;;;;;;;;;5003931;28;20050;-82
2022/05/28 01:17:42;;;;;;;21.23;2.55;;;;;;;;;;5007361;28;20046;-81
2022/05/28 01:20:17;;;;;;;21.13;3.20;;;;;;;;;;5010166;28;20161;-81
2022/05/28 01:22:56;;;;;;;15.40;3.40;;;;;;;;;;5010335;28;20081;-81
2022/05/28 01:25:27;;;;;;;20.73;2.30;;;;;;;;;;5009270;28;20089;-81
2022/05/28 01:28:01;;;;;;;30.02;3.50;;;;;;;;;;5009742;28;20125;-81
2022/05/28 01:30:28;;;;;;;19.70;2.55;;;;;;;;;;5011136;28;20077;-82
2022/05/28 01:32:56;;;;;;;20.50;2.88;;;;;;;;;;5011567;28;20135;-82
2022/05/28 01:35:24;;;;;;;15.90;3.00;;;;;;;;;;5010886;28;20802;-82
2022/05/28 01:37:51;;;;;;;14.73;2.35;;;;;;;;;;5004888;28;20129;-81
2022/05/28 01:40:20;;;;;;;14.43;2.30;;;;;;;;;;5002836;28;20086;-81
2022/05/28 01:42:51;;;;;;;14.52;2.58;;;;;;;;;;5006710;28;20785;-82
2022/05/28 01:45:20;;;;;;;14.63;2.45;;;;;;;;;;5010382;28;20065;-81
2022/05/28 01:47:48;;;;;;;22.48;2.92;;;;;;;;;;5009248;28;20475;-81
2022/05/28 01:50:17;;;;;;;15.63;2.63;;;;;;;;;;5008919;28;20760;-81
2022/05/28 01:52:44;;;;;;;7.63;1.55;;;;;;;;;;5006022;28;20085;-81
2022/05/28 01:55:14;;;;;;;10.05;1.88;;;;;;;;;;4991205;28;20054;-81
2022/05/28 01:57:42;;;;;;;11.23;1.77;;;;;;;;;;5006035;28;20058;-81
2022/05/28 02:00:09;;;;;;;8.43;1.85;;;;;;;;;;4990562;28;20559;-81
2022/05/28 02:02:37;;;;;;;10.15;1.63;;;;;;;;;;5024831;28;20960;-81
2022/05/28 02:05:04;;;;;;;7.65;2.00;;;;;;;;;;5010496;28;20108;-81
2022/05/28 02:07:32;;;;;;;7.75;1.85;;;;;;;;;;5008593;28;20141;-81
2022/05/28 02:10:01;;;;;;;10.98;1.65;;;;;;;;;;5009601;28;20140;-81
2022/05/28 02:12:31;;;;;;;8.68;2.15;;;;;;;;;;5010025;28;20108;-81
2022/05/28 02:15:10;;;;;;;13.88;1.90;;;;;;;;;;5009622;28;20134;-81
2022/05/28 02:17:56;;;;;;;8.63;2.60;;;;;;;;;;5008246;28;20096;-81
2022/05/28 02:20:27;;;;;;;16.45;2.03;;;;;;;;;;5009474;28;20138;-81
2022/05/28 02:23:16;;;;;;;15.55;1.90;;;;;;;;;;5007654;28;20050;-81
2022/05/28 02:25:50;;;;;;;13.02;1.95;;;;;;;;;;5002344;28;20116;-80
2022/05/28 02:28:17;;;;;;;15.68;2.55;;;;;;;;;;5004301;28;20137;-81
2022/05/28 02:30:52;;;;;;;11.75;2.05;;;;;;;;;;5005789;28;20139;-81
2022/05/28 02:33:20;;;;;;;14.35;2.58;;;;;;;;;;5008162;28;20610;-81
2022/05/28 02:35:48;;;;;;;11.70;2.38;;;;;;;;;;4994009;28;20725;-81
2022/05/28 02:38:17;;;;;;;16.73;2.13;;;;;;;;;;5026332;28;20517;-81
2022/05/28 02:40:44;;;;;;;10.52;2.20;;;;;;;;;;5008681;28;20074;-80
2022/05/28 02:43:11;;;;;;;13.48;1.90;;;;;;;;;;5009189;28;20100;-81
2022/05/28 02:45:39;;;;;;;9.30;2.45;;;;;;;;;;5021367;28;20054;-81
2022/05/28 02:48:06;;;;;;;7.90;1.50;;;;;;;;;;5013595;28;20058;-80
2022/05/28 02:50:33;;;;;;;10.25;2.30;;;;;;;;;;5012061;28;20152;-81
2022/05/28 02:53:01;;;;;;;7.30;1.55;;;;;;;;;;5013025;28;20154;-81
2022/05/28 02:55:28;;;;;;;7.15;1.30;;;;;;;;;;5012195;28;20092;-81
2022/05/28 02:57:55;;;;;;;6.50;1.50;;;;;;;;;;5012168;28;20507;-81
2022/05/28 03:00:23;;;;;;;7.03;1.48;;;;;;;;;;5012617;28;20131;-81
2022/05/28 03:02:50;;;;;;;12.48;1.25;;;;;;;;;;5013510;28;20046;-81
2022/05/28 03:05:18;;;;;;;8.30;1.40;;;;;;;;;;5011858;28;20164;-81
2022/05/28 03:07:46;;;;;;;12.50;3.10;;;;;;;;;;5013306;28;20079;-81
2022/05/28 03:10:13;;;;;;;7.43;1.25;;;;;;;;;;5011908;28;20081;-82
2022/05/28 03:12:41;;;;;;;8.48;1.60;;;;;;;;;;5008672;28;20081;-81
2022/05/28 03:15:08;;;;;;;8.35;1.40;;;;;;;;;;5008455;28;20829;-81
2022/05/28 03:17:36;;;;;;;7.88;1.30;;;;;;;;;;5008176;28;20100;-81
2022/05/28 03:20:04;;;;;;;5.68;1.33;;;;;;;;;;5004470;28;20224;-81
2022/05/28 03:22:31;;;;;;;8.05;1.30;;;;;;;;;;5010949;28;20100;-81
2022/05/28 03:24:58;;;;;;;7.72;1.63;;;;;;;;;;5013359;28;20054;-81
2022/05/28 03:27:26;;;;;;;4.50;1.42;;;;;;;;;;5008435;28;20077;-81
2022/05/28 03:29:53;;;;;;;4.22;1.20;;;;;;;;;;5006941;28;20058;-82
2022/05/28 03:32:20;;;;;;;7.20;1.48;;;;;;;;;;5002839;28;20486;-82
2022/05/28 03:34:47;;;;;;;8.90;1.27;;;;;;;;;;5011664;28;20568;-81
2022/05/28 03:37:15;;;;;;;13.82;1.92;;;;;;;;;;5010452;28;20042;-82
2022/05/28 03:39:42;;;;;;;5.72;1.20;;;;;;;;;;5011754;28;20085;-82
2022/05/28 03:42:09;;;;;;;6.57;1.02;;;;;;;;;;5008187;28;20046;-82
2022/05/28 03:44:39;;;;;;;7.53;1.55;;;;;;;;;;5008628;28;20054;-83
2022/05/28 03:47:07;;;;;;;4.10;1.73;;;;;;;;;;5015022;28;20057;-82
2022/05/28 03:49:37;;;;;;;10.55;1.20;;;;;;;;;;5013117;28;20062;-83
2022/05/28 03:52:05;;;;;;;10.07;1.85;;;;;;;;;;5011484;28;20050;-83
2022/05/28 03:54:32;;;;;;;4.45;0.95;;;;;;;;;;5013105;28;20058;-82
2022/05/28 03:57:07;;;;;;;8.10;1.40;;;;;;;;;;5011083;28;20477;-82
2022/05/28 03:59:34;;;;;;;13.60;2.03;;;;;;;;;;5010264;28;20092;-82
2022/05/28 04:02:03;;;;;;;5.65;1.90;;;;;;;;;;5012787;28;20077;-82
2022/05/28 04:04:31;;;;;;;9.13;2.53;;;;;;;;;;5011973;28;20160;-82
2022/05/28 04:07:01;;;;;;;9.93;1.50;;;;;;;;;;5012001;28;20115;-82
2022/05/28 04:09:28;;;;;;;13.57;1.95;;;;;;;;;;5011921;28;20457;-82
2022/05/28 04:11:55;;;;;;;9.80;1.77;;;;;;;;;;5008053;28;20475;-82
2022/05/28 04:14:23;;;;;;;12.13;2.05;;;;;;;;;;5007746;28;20140;-82
2022/05/28 04:16:50;;;;;;;12.10;1.70;;;;;;;;;;4999590;28;20054;-82
2022/05/28 04:19:17;;;;;;;32.15;2.53;;;;;;;;;;5010866;28;20162;-81
2022/05/28 04:21:44;;;;;;;7.60;1.52;;;;;;;;;;5010395;28;20109;-81
2022/05/28 04:24:12;;;;;;;15.13;2.10;;;;;;;;;;5011121;28;20054;-81
2022/05/28 04:26:39;;;;;;;8.70;1.52;;;;;;;;;;5011370;28;20494;-81
2022/05/28 04:29:06;;;;;;;17.55;2.28;;;;;;;;;;5011864;28;20089;-82
2022/05/28 04:31:33;;;;;;;5.32;1.65;;;;;;;;;;5005366;28;20753;-80
2022/05/28 04:34:01;;;;;;;8.32;1.80;;;;;;;;;;5004858;28;20107;-81
2022/05/28 04:36:28;;;;;;;15.65;2.58;;;;;;;;;;5004309;28;20136;-81
2022/05/28 04:38:55;;;;;;;12.35;2.50;;;;;;;;;;5006562;28;20153;-82
2022/05/28 04:41:22;;;;;;;12.55;4.32;;;;;;;;;;5011164;28;20069;-81
2022/05/28 04:43:50;;;;;;;16.42;1.70;;;;;;;;;;5010454;28;20081;-82
2022/05/28 04:46:17;;;;;;;9.63;2.08;;;;;;;;;;5010535;28;20057;-81
2022/05/28 04:48:45;;;;;;;11.63;2.22;;;;;;;;;;5010551;28;20060;-81
2022/05/28 04:51:12;;;;;;;12.30;2.38;;;;;;;;;;5010866;28;20682;-82
2022/05/28 04:53:39;;;;;;;14.77;2.00;;;;;;;;;;5010730;28;20589;-81
2022/05/28 04:56:07;;;;;;;10.20;2.08;;;;;;;;;;5009879;28;20077;-81
2022/05/28 04:58:39;;;;;;;8.35;1.67;;;;;;;;;;5009835;28;20053;-81
2022/05/28 05:01:06;;;;;;;14.13;2.05;;;;;;;;;;5008734;28;20088;-81
2022/05/28 05:03:34;;;;;;;17.48;1.75;;;;;;;;;;5010779;28;20049;-81
2022/05/28 05:06:01;;;;;;;15.18;2.28;;;;;;;;;;5011252;28;20069;-81
2022/05/28 05:08:29;;;;;;;21.65;4.20;;;;;;;;;;5010256;28;20136;-81
2022/05/28 05:10:56;;;;;;;11.95;2.10;;;;;;;;;;5009569;28;20104;-81
2022/05/28 05:13:24;;;;;;;13.07;2.97;;;;;;;;;;5009517;28;20050;-81
2022/05/28 05:15:51;;;;;;;12.50;2.15;;;;;;;;;;5009320;28;20077;-82
2022/05/28 05:18:18;;;;;;;12.68;2.33;;;;;;;;;;5011276;28;20217;-81
2022/05/28 05:20:46;;;;;;;13.38;2.40;;;;;;;;;;5010544;28;20129;-81
2022/05/28 05:23:13;;;;;;;24.15;3.63;;;;;;;;;;5009578;28;20080;-81
2022/05/28 05:25:40;;;;;;;13.02;2.08;;;;;;;;;;5009539;28;20074;-82
2022/05/28 05:28:07;;;;;;;14.50;1.92;;;;;;;;;;5007827;28;20137;-81
2022/05/28 05:30:34;;;;;;;13.20;1.80;;;;;;;;;;5010873;28;20754;-82
2022/05/28 05:33:01;;;;;;;13.50;2.03;;;;;;;;;;5011161;28;20085;-81
2022/05/28 05:35:29;;;;;;;10.32;1.92;;;;;;;;;;5009960;28;20096;-81
2022/05/28 05:37:56;;;;;;;14.00;2.10;;;;;;;;;;5010729;28;20073;-81
2022/05/28 05:40:23;;;;;;;14.63;1.88;;;;;;;;;;5010733;28;20050;-81
2022/05/28 05:42:50;;;;;;;13.95;1.95;;;;;;;;;;5009286;28;20129;-81
2022/05/28 05:45:18;;;;;;;6.43;1.80;;;;;;;;;;5009414;28;20065;-81
2022/05/28 05:47:45;;;;;;;14.02;2.13;;;;;;;;;;5008809;28;20081;-81
2022/05/28 05:50:12;;;;;;;9.82;1.83;;;;;;;;;;5008314;28;20550;-80
2022/05/28 05:52:40;;;;;;;12.75;2.03;;;;;;;;;;5009289;28;20073;-79
2022/05/28 05:55:15;;;;;;;17.38;2.70;;;;;;;;;;5008531;28;20050;-80
2022/05/28 05:57:42;;;;;;;15.18;2.60;;;;;;;;;;5010042;28;20131;-79
2022/05/28 06:00:09;;;;;;;17.30;2.38;;;;;;;;;;5008690;28;20073;-80
2022/05/28 06:02:37;;;;;;;8.45;1.73;;;;;;;;;;5009234;28;20089;-80
2022/05/28 06:05:04;;;;;;;12.32;1.58;;;;;;;;;;5011232;28;20073;-81
2022/05/28 06:07:31;;;;;;;14.45;2.28;;;;;;;;;;5008840;28;20081;-81
2022/05/28 06:09:59;;;;;;;10.30;1.90;;;;;;;;;;4994856;28;20159;-81
2022/05/28 06:12:26;;;;;;;17.17;2.83;;;;;;;;;;5020779;28;20133;-81
2022/05/28 06:14:53;;;;;;;13.57;1.90;;;;;;;;;;5010631;28;20073;-80
2022/05/28 06:17:20;;;;;;;15.70;1.60;;;;;;;;;;5002347;28;20054;-81
2022/05/28 06:19:52;;;;;;;10.88;2.10;;;;;;;;;;4987494;28;20438;-80
2022/05/28 06:22:19;;;;;;;11.30;1.70;;;;;;;;;;5013218;28;20058;-80
2022/05/28 06:24:46;;;;;;;12.82;2.10;;;;;;;;;;5007163;28;20100;-80
2022/05/28 06:27:14;;;;;;;16.98;2.42;;;;;;;;;;5007821;28;20816;-80
2022/05/28 06:29:41;;;;;;;12.68;2.20;;;;;;;;;;5007775;28;20128;-80
2022/05/28 06:32:08;;;;;;;20.33;2.83;;;;;;;;;;5009876;28;20141;-80
2022/05/28 06:34:36;;;;;;;13.15;1.85;;;;;;;;;;5010174;28;20097;-80
2022/05/28 06:37:03;;;;;;;11.75;2.75;;;;;;;;;;5010526;28;20153;-80
2022/05/28 06:39:30;;;;;;;13.77;2.90;;;;;;;;;;5010733;28;20084;-81
2022/05/28 06:41:57;;;;;;;6.72;1.52;;;;;;;;;;5012541;28;20077;-80
2022/05/28 06:44:25;;;;;;;9.70;1.92;;;;;;;;;;5007092;28;20085;-80
2022/05/28 06:46:52;;;;;;;10.48;2.05;;;;;;;;;;5006177;28;20053;-80
2022/05/28 06:49:19;;;;;;;12.82;1.98;;;;;;;;;;5004252;28;20140;-80
2022/05/28 06:51:46;;;;;;;10.82;2.92;;;;;;;;;;5005728;28;20084;-80
2022/05/28 06:54:14;;;;;;;13.15;2.28;;;;;;;;;;5006985;28;20497;-78
2022/05/28 06:56:41;;;;;;;16.60;2.65;;;;;;;;;;5010973;28;20046;-80
2022/05/28 06:59:08;;;;;;;20.58;2.40;;;;;;;;;;5008094;28;20447;-81
2022/05/28 07:01:35;;;;;;;16.83;2.47;;;;;;;;;;5009236;28;20084;-80
2022/05/28 07:04:04;;;;;;;16.45;2.38;;;;;;;;;;5011361;28;20053;-80
2022/05/28 07:06:33;;;;;;;15.45;2.35;;;;;;;;;;5011118;28;20423;-80
2022/05/28 07:09:00;;;;;;;9.20;2.30;;;;;;;;;;5011601;28;20077;-80
2022/05/28 07:11:28;;;;;;;12.13;2.33;;;;;;;;;;5012491;28;20128;-80
2022/05/28 07:13:55;;;;;;;10.50;2.42;;;;;;;;;;5011106;28;20697;-81
2022/05/28 07:16:22;;;;;;;11.25;2.28;;;;;;;;;;5011286;28;20152;-80
2022/05/28 07:18:49;;;;;;;15.38;2.45;;;;;;;;;;5012493;28;20046;-79
2022/05/28 07:21:16;;;;;;;12.93;2.63;;;;;;;;;;5010751;28;20149;-80
2022/05/28 07:23:44;;;;;;;20.48;2.75;;;;;;;;;;5013017;28;20085;-80
2022/05/28 07:26:16;;;;;;;9.70;2.08;;;;;;;;;;5012527;28;20061;-80
2022/05/28 07:28:45;;;;;;;15.80;2.35;;;;;;;;;;5012763;28;20136;-79
2022/05/28 07:31:14;;;;;;;8.80;2.50;;;;;;;;;;5011083;28;20088;-78
2022/05/28 07:33:42;;;;;;;18.33;2.38;;;;;;;;;;5010614;28;20077;-79
2022/05/28 07:36:11;;;;;;;8.32;2.08;;;;;;;;;;5010334;28;20822;-79
2022/05/28 07:38:39;;;;;;;17.00;2.72;;;;;;;;;;5015778;28;20486;-80
2022/05/28 07:41:08;;;;;;;12.15;2.40;;;;;;;;;;5025568;28;20129;-80
2022/05/28 07:43:35;;;;;;;19.48;3.13;;;;;;;;;;5010381;28;20080;-79
2022/05/28 07:46:03;;;;;;;13.45;2.38;;;;;;;;;;5008663;28;20076;-78
2022/05/28 07:48:30;;;;;;;12.13;2.90;;;;;;;;;;5004820;28;20116;-77
2022/05/28 07:50:59;;;;;;;14.70;2.28;;;;;;;;;;5005349;28;20058;-78
2022/05/28 07:53:27;;;;;;;20.10;2.22;;;;;;;;;;5005036;28;20077;-77
2022/05/28 07:55:54;;;;;;;15.02;2.15;;;;;;;;;;4989994;28;20092;-77
2022/05/28 07:58:21;;;;;;;16.23;2.72;;;;;;;;;;5009005;28;20560;-78
2022/05/28 08:00:49;;;;;;;16.20;2.88;;;;;;;;;;5003893;28;20703;-79
2022/05/28 08:03:17;;;;;;;15.73;2.38;;;;;;;;;;5008496;28;20046;-79
2022/05/28 08:05:46;;;;;;;15.20;2.67;;;;;;;;;;5009159;28;20127;-79
2022/05/28 08:08:14;;;;;;;16.77;2.63;;;;;;;;;;5007948;28;20149;-79
2022/05/28 08:10:41;;;;;;;17.77;2.92;;;;;;;;;;5007442;28;20085;-78
2022/05/28 08:13:12;;;;;;;12.77;2.13;;;;;;;;;;5004501;28;20168;-79
2022/05/28 08:15:40;;;;;;;18.15;3.42;;;;;;;;;;5008871;28;20085;-78
2022/05/28 08:18:08;;;;;;;11.65;2.67;;;;;;;;;;5009653;28;20213;-79
2022/05/28 08:23:21;;;;;;;15.73;2.40;;;;;;;;;;5009519;28;20139;-80
2022/05/28 08:25:49;;;;;;;17.88;2.17;;;;;;;;;;5005717;28;20497;-79
2022/05/28 08:28:17;;;;;;;15.48;2.25;;;;;;;;;;5007949;28;20113;-80
2022/05/28 08:30:44;;;;;;;10.85;2.15;;;;;;;;;;5008852;28;20149;-79
2022/05/28 08:33:13;;;;;;;15.95;2.65;;;;;;;;;;5009089;28;20621;-79
2022/05/28 08:35:40;;;;;;;14.48;2.95;;;;;;;;;;5007945;28;20132;-79
2022/05/28 08:38:09;;;;;;;15.70;1.77;;;;;;;;;;5009751;28;20061;-79
2022/05/28 08:40:55;;;;;;;25.02;2.80;;;;;;;;;;5009529;28;20485;-79
2022/05/28 08:43:22;;;;;;;15.32;3.03;;;;;;;;;;5008784;28;20128;-79
2022/05/28 08:45:50;;;;;;;11.85;2.22;;;;;;;;;;5010463;28;20745;-79
2022/05/28 08:48:21;;;;;;;22.00;2.95;;;;;;;;;;5008080;28;20058;-80
2022/05/28 08:50:52;;;;;;;17.33;2.75;;;;;;;;;;5010625;28;20045;-79
2022/05/28 08:53:23;;;;;;;12.95;2.40;;;;;;;;;;5004422;28;20086;-80
2022/05/28 08:55:50;;;;;;;17.83;3.08;;;;;;;;;;5005145;28;20081;-80
2022/05/28 08:58:20;;;;;;;10.80;1.90;;;;;;;;;;5008924;28;20054;-81
2022/05/28 09:00:59;;;;;;;17.23;2.63;;;;;;;;;;5010353;28;20085;-81
2022/05/28 09:03:26;;;;;;;15.85;2.47;;;;;;;;;;4990525;28;20050;-80
2022/05/28 09:05:56;;;;;;;15.23;2.35;;;;;;;;;;5006450;28;20050;-81
2022/05/28 09:08:27;;;;;;;11.75;2.67;;;;;;;;;;5006432;28;20464;-81
2022/05/28 09:10:54;;;;;;;14.48;3.15;;;;;;;;;;5005356;28;20518;-80
2022/05/28 09:13:36;;;;;;;16.17;3.75;;;;;;;;;;5009943;28;20081;-80
2022/05/28 09:16:04;;;;;;;21.90;2.55;;;;;;;;;;5009912;28;20088;-80
2022/05/28 09:18:36;;;;;;;17.75;2.58;;;;;;;;;;5009114;28;20503;-79
2022/05/28 09:21:04;;;;;;;25.08;2.22;;;;;;;;;;5009419;28;20072;-80
2022/05/28 09:23:35;;;;;;;10.20;2.13;;;;;;;;;;5009768;28;20084;-81
2022/05/28 09:26:04;;;;;;;11.10;2.63;;;;;;;;;;5009567;28;20136;-81
2022/05/28 09:28:50;;;;;;;13.10;2.10;;;;;;;;;;5008134;28;20517;-78
2022/05/28 09:31:24;;;;;;;17.67;2.15;;;;;;;;;;5009209;28;20122;-79
2022/05/28 09:33:51;;;;;;;10.18;1.92;;;;;;;;;;5008703;28;20145;-78
2022/05/28 09:36:19;;;;;;;15.95;2.30;;;;;;;;;;5009573;28;20057;-79
2022/05/28 09:38:55;;;;;;;12.93;2.35;;;;;;;;;;5009643;28;20490;-78
2022/05/28 09:41:25;;;;;;;14.45;2.42;;;;;;;;;;5009076;28;20049;-79
2022/05/28 09:43:53;;;;;;;12.82;1.90;;;;;;;;;;5008174;28;20489;-79
2022/05/28 09:46:37;;;;;;;18.20;1.90;;;;;;;;;;5008081;28;20085;-80
2022/05/28 09:49:06;;;;;;;13.82;1.65;;;;;;;;;;5004618;28;20046;-80
2022/05/28 09:51:34;;;;;;;13.93;2.00;;;;;;;;;;4993290;28;20569;-80
2022/05/28 09:54:20;;;;;;;14.50;2.35;;;;;;;;;;5008083;28;20050;-80
2022/05/28 09:57:09;;;;;;;10.32;2.55;;;;;;;;;;5008439;28;20052;-80
2022/05/28 09:59:37;;;;;;;21.30;2.50;;;;;;;;;;5009538;28;20197;-80
2022/05/28 10:02:09;;;;;;;16.75;2.28;;;;;;;;;;5008000;28;20054;-79
2022/05/28 10:04:47;;;;;;;13.57;2.10;;;;;;;;;;5008798;28;20046;-81
2022/05/28 10:07:17;;;;;;;10.63;3.08;;;;;;;;;;5008885;28;20081;-81
2022/05/28 10:09:49;;;;;;;14.55;2.65;;;;;;;;;;5008983;28;20049;-81
2022/05/28 10:12:22;;;;;;;8.38;1.77;;;;;;;;;;5008750;28;20089;-81
2022/05/28 10:14:59;;;;;;;6.68;1.50;;;;;;;;;;5008423;28;20077;-81
2022/05/28 10:17:28;;;;;;;8.57;1.92;;;;;;;;;;5006123;28;20077;-80
2022/05/28 10:19:57;;;;;;;12.70;2.35;;;;;;;;;;5008780;28;20058;-80
2022/05/28 10:22:25;;;;;;;8.18;1.73;;;;;;;;;;5008635;28;20062;-82
2022/05/28 10:24:57;;;;;;;7.35;2.05;;;;;;;;;;5007981;28;20050;-82
2022/05/28 10:27:44;;;;;;;12.52;2.05;;;;;;;;;;5002558;28;20089;-79
2022/05/28 10:30:24;;;;;;;12.60;2.35;;;;;;;;;;4978194;28;20102;-81
2022/05/28 10:32:52;;;;;;;13.45;1.98;;;;;;;;;;5019179;28;20058;-80
2022/05/28 10:35:31;;;;;;;13.57;2.33;;;;;;;;;;5008212;28;20057;-81
2022/05/28 10:38:08;;;;;;;10.48;2.35;;;;;;;;;;5007396;28;20112;-80
2022/05/28 10:40:38;;;;;;;14.25;2.03;;;;;;;;;;5003817;28;20173;-80
2022/05/28 10:43:22;;;;;;;12.98;2.15;;;;;;;;;;4999722;28;20137;-80
2022/05/28 10:45:53;;;;;;;16.38;2.45;;;;;;;;;;5003627;28;20050;-81
2022/05/28 10:48:27;;;;;;;15.27;2.05;;;;;;;;;;5008520;28;20473;-80
2022/05/28 10:51:13;;;;;;;10.05;2.42;;;;;;;;;;5003654;28;20077;-81
2022/05/28 10:53:40;;;;;;;;;;;;;;;;;;5004951;28;20089;-80
2022/05/28 10:56:31;;;;;;;10.05;1.67;;;;;;;;;;5004324;28;19921;-81
2022/05/28 10:59:18;;;;;;;13.00;2.08;;;;;;;;;;5013070;28;20085;-83
2022/05/28 11:02:08;;;;;;;13.63;2.90;;;;;;;;;;5012256;28;20069;-81
2022/05/28 11:04:41;;;;;;;11.73;2.17;;;;;;;;;;5003763;28;20054;-80
2022/05/28 11:07:15;;;;;;;14.23;2.08;;;;;;;;;;5012032;28;20123;-80
2022/05/28 11:09:42;;;;;;;10.55;1.85;;;;;;;;;;5010294;28;20092;-80
2022/05/28 11:12:23;;;;;;;17.70;2.00;;;;;;;;;;5011622;28;20145;-79
2022/05/28 11:14:56;;;;;;;10.23;2.20;;;;;;;;;;5011544;28;20152;-81
2022/05/28 11:17:25;;;;;;;11.07;2.30;;;;;;;;;;5010600;28;20129;-81
2022/05/28 11:20:07;;;;;;;9.40;2.25;;;;;;;;;;5006048;28;20055;-82
2022/05/28 11:22:54;;;;;;;9.80;2.20;;;;;;;;;;5007723;28;20501;-81
2022/05/28 11:25:28;;;;;;;13.23;2.35;;;;;;;;;;5010354;28;20081;-80
2022/05/28 11:28:20;;;;;;;12.07;2.25;;;;;;;;;;5010339;28;20042;-77
2022/05/28 11:30:49;;;;;;;13.80;2.17;;;;;;;;;;5005298;28;20045;-80
2022/05/28 11:33:22;;;;;;;11.18;2.13;;;;;;;;;;5009951;28;20052;-79
2022/05/28 11:36:01;;;;;;;11.90;2.38;;;;;;;;;;5005964;28;20188;-80
2022/05/28 11:38:41;;;;;;;12.13;2.30;;;;;;;;;;5006624;28;20463;-80
2022/05/28 11:41:13;;;;;;;16.95;3.28;;;;;;;;;;5020149;28;20085;-79
2022/05/28 11:44:07;;;;;;;13.05;1.85;;;;;;;;;;5010596;28;20053;-80
2022/05/28 11:46:45;;;;;;;13.75;2.72;;;;;;;;;;4978243;28;20452;-80
2022/05/28 11:52:28;;;;;;;18.30;3.10;;;;;;;;;;5011917;28;20799;-80
2022/05/28 11:54:59;;;;;;;18.30;2.33;;;;;;;;;;5012032;28;20127;-81
2022/05/28 11:57:29;;;;;;;10.85;2.40;;;;;;;;;;5010377;28;20081;-80
2022/05/28 11:59:58;;;;;;;8.82;2.35;;;;;;;;;;5009994;28;20638;-80
2022/05/28 12:02:28;;;;;;;18.17;1.85;;;;;;;;;;5006354;28;20724;-80
2022/05/28 12:04:56;;;;;;;19.70;3.17;;;;;;;;;;5004189;28;20104;-79
2022/05/28 12:07:41;;;;;;;23.75;3.78;;;;;;;;;;5005245;28;20058;-80
2022/05/28 12:10:11;;;;;;;15.43;2.72;;;;;;;;;;5009091;28;20078;-80
2022/05/28 12:12:39;;;;;;;9.93;2.53;;;;;;;;;;5005289;28;20054;-80
2022/05/28 12:15:26;;;;;;;17.73;2.53;;;;;;;;;;5004064;28;20129;-80
2022/05/28 12:17:57;;;;;;;11.68;2.20;;;;;;;;;;5010291;28;20058;-81
2022/05/28 12:20:32;;;;;;;14.98;3.08;;;;;;;;;;5010084;28;20054;-80
2022/05/28 12:23:03;;;;;;;16.55;2.40;;;;;;;;;;5009475;28;20161;-80
2022/05/28 12:25:37;;;;;;;14.73;2.58;;;;;;;;;;5010782;28;20046;-80
2022/05/28 12:28:11;;;;;;;11.15;2.15;;;;;;;;;;5006432;28;20088;-79
2022/05/28 12:30:40;;;;;;;17.52;2.40;;;;;;;;;;5011313;28;20469;-80
2022/05/28 12:33:18;;;;;;;17.85;3.25;;;;;;;;;;5006386;28;20059;-80
2022/05/28 12:35:49;;;;;;;12.27;2.67;;;;;;;;;;5023030;28;20133;-80
2022/05/28 12:38:38;;;;;;;16.67;2.58;;;;;;;;;;5010812;28;20129;-80
2022/05/28 12:41:06;;;;;;;22.08;2.80;;;;;;;;;;4999140;28;20148;-80
2022/05/28 12:43:37;;;;;;;13.82;3.08;;;;;;;;;;5008777;28;20061;-80
2022/05/28 12:46:37;;;;;;;12.93;2.63;;;;;;;;;;5008806;28;20046;-81
2022/05/28 12:49:09;;;;;;;19.55;3.05;;;;;;;;;;4977262;28;20467;-80
2022/05/28 12:51:49;;;;;;;10.65;2.03;;;;;;;;;;5003815;28;20105;-81
2022/05/28 12:54:27;;;;;;;13.88;3.00;;;;;;;;;;5005923;28;20132;-79
2022/05/28 12:57:24;;;;;;;14.50;3.00;;;;;;;;;;4996492;28;20054;-80
2022/05/28 12:59:59;;;;;;;12.00;2.10;;;;;;;;;;5004759;28;20486;-80
2022/05/28 13:02:29;;;;;;;26.55;3.10;;;;;;;;;;5010724;28;20080;-80
2022/05/28 13:05:00;;;;;;;11.95;2.63;;;;;;;;;;5008757;28;20498;-80
2022/05/28 13:07:42;;;;;;;15.75;2.75;;;;;;;;;;5004147;28;20062;-79
2022/05/28 13:10:21;;;;;;;9.90;1.80;;;;;;;;;;4994013;28;20181;-79
2022/05/28 13:13:02;;;;;;;16.20;2.58;;;;;;;;;;5009244;28;20119;-79
2022/05/28 13:15:33;;;;;;;12.88;2.50;;;;;;;;;;5009320;28;20057;-81
2022/05/28 13:18:09;;;;;;;20.48;2.60;;;;;;;;;;5005259;28;20046;-81
2022/05/28 13:20:50;;;;;;;15.68;3.53;;;;;;;;;;5007470;28;20129;-81
2022/05/28 13:23:27;;;;;;;6.78;2.10;;;;;;;;;;5010519;28;20045;-81
2022/05/28 13:25:57;;;;;;;15.38;2.67;;;;;;;;;;5008830;28;20498;-81
2022/05/28 13:28:32;;;;;;;16.00;2.10;;;;;;;;;;5008226;28;20089;-81
2022/05/28 13:31:00;;;;;;;15.77;2.78;;;;;;;;;;5008500;28;20077;-79
2022/05/28 13:33:32;;;;;;;13.23;2.25;;;;;;;;;;5006992;28;20058;-77
2022/05/28 13:36:01;;;;;;;15.13;2.20;;;;;;;;;;5006935;28;20049;-77
2022/05/28 13:38:29;;;;;;;12.57;2.70;;;;;;;;;;5009030;28;20088;-80
2022/05/28 13:41:03;;;;;;;14.60;3.35;;;;;;;;;;5007473;28;20053;-81
2022/05/28 13:43:34;;;;;;;12.15;3.88;;;;;;;;;;5008049;28;20140;-78
2022/05/28 13:46:03;;;;;;;17.98;4.88;;;;;;;;;;5009281;28;20902;-81
2022/05/28 13:48:34;;;;;;;12.05;1.92;;;;;;;;;;5008191;28;20100;-79
2022/05/28 13:51:02;;;;;;;16.33;3.28;;;;;;;;;;5008452;28;20077;-82
2022/05/28 13:53:31;;;;;;;12.18;3.63;;;;;;;;;;5010202;28;20149;-83
2022/05/28 13:56:00;;;;;;;10.57;2.85;;;;;;;;;;5008875;28;20057;-82
2022/05/28 13:58:32;;;;;;;11.98;3.50;;;;;;;;;;5009096;28;20935;-82
2022/05/28 14:01:04;;;;;;;21.73;4.93;;;;;;;;;;5009068;28;20466;-82
2022/05/28 14:03:34;;;;;;;17.38;2.70;;;;;;;;;;5008005;28;20049;-81
2022/05/28 14:06:02;;;;;;;25.88;3.40;;;;;;;;;;5008379;28;20089;-81
2022/05/28 14:08:37;;;;;;;19.75;3.63;;;;;;;;;;5005279;28;20058;-80
2022/05/28 14:11:20;;;;;;;17.50;3.65;;;;;;;;;;5010386;28;20112;-81
2022/05/28 14:13:50;;;;;;;18.02;3.35;;;;;;;;;;5008038;28;20149;-80
2022/05/28 14:16:26;;;;;;;21.30;3.33;;;;;;;;;;5008191;28;20077;-80
2022/05/28 14:18:55;;;;;;;24.70;3.88;;;;;;;;;;5008546;28;20096;-80
2022/05/28 14:21:25;;;;;;;13.02;2.42;;;;;;;;;;5008119;28;20136;-80
2022/05/28 14:23:52;;;;;;;20.10;2.42;;;;;;;;;;5008520;28;20054;-80
2022/05/28 14:26:19;;;;;;;17.85;3.65;;;;;;;;;;5007998;28;20073;-80
2022/05/28 14:28:48;;;;;;;19.38;3.70;;;;;;;;;;5011495;28;20163;-80
2022/05/28 14:31:17;;;;;;;15.40;2.53;;;;;;;;;;5013337;28;20092;-81
2022/05/28 14:33:53;;;;;;;23.90;3.50;;;;;;;;;;5013184;28;20393;-81
2022/05/28 14:36:33;;;;;;;14.93;3.20;;;;;;;;;;5008639;28;20050;-80
2022/05/28 14:39:07;;;;;;;14.48;2.60;;;;;;;;;;5008642;28;20043;-80
2022/05/28 14:41:34;;;;;;;13.98;2.78;;;;;;;;;;5008867;28;20128;-80
2022/05/28 14:44:02;;;;;;;13.63;2.60;;;;;;;;;;5010165;28;20568;-80
2022/05/28 14:46:36;;;;;;;15.15;2.65;;;;;;;;;;5012141;28;20085;-80
2022/05/28 14:49:05;;;;;;;10.13;2.50;;;;;;;;;;5012975;28;20085;-80
2022/05/28 14:51:38;;;;;;;13.68;2.55;;;;;;;;;;5011010;28;20074;-79
2022/05/28 14:54:05;;;;;;;16.88;3.80;;;;;;;;;;5008370;28;20139;-80
2022/05/28 14:56:34;;;;;;;15.23;3.13;;;;;;;;;;5007564;28;20107;-80
2022/05/28 14:59:02;;;;;;;13.43;3.15;;;;;;;;;;5009988;28;20125;-78